Mapa de nuvens (SC)

Imagem satélite Climatempo

Mapa GOES 13 Colorida (Sul)

Imagem satélite Climatempo

Radar de chuvas (Lontras/SC)

Radar Ciram Epagri

Mapa de raios

Radios Simepar

Previsão para Florianópolis

Segunda-feira

Essencialmente limpo. Máxima de 21°C. Ventos N a 15 a 25 km/h.


Segunda à noite

Parcialmente nublado. Mínima 17°C. Ventos NNO a 10 a 15 km/h.


Terça-feira

Parcialmente Nublado

22º / 16º

Quarta-feira

Céu Limpo

24º / 16º

Quinta-feira

Parcialmente Nublado

24º / 17º

Aeroporto Florianópolis/SC (FLN) - SBFL


Situação: Aberto para pouso e decolagem

Atualização: 1350 UTC 26 Jun 2017

Vento: 07KT (13,6 Km/h) - Norte (N) (360º)

Visibilidade: Maior que 10.000 metros (céu limpo)

Temperatura: 20ºC / 14ºC

Pressão: 1024 hPa

Data at: 1350 UTC 26 Jun 2017SBFL 261300Z 36007KT CAVOK 20/14 Q1024